createdAt,value
2023-03-15T00:01:49.484Z,16.52
2023-03-15T00:04:16.668Z,13.60
2023-03-15T00:06:43.541Z,16.23
2023-03-15T00:09:11.431Z,14.65
2023-03-15T00:11:38.346Z,13.95
2023-03-15T00:14:06.093Z,13.57
2023-03-15T00:16:33.009Z,12.20
2023-03-15T00:19:00.623Z,15.90
2023-03-15T00:21:29.887Z,14.23
2023-03-15T00:23:57.208Z,11.20
2023-03-15T00:26:24.460Z,12.20
2023-03-15T00:28:51.390Z,13.40
2023-03-15T00:31:23.831Z,14.18
2023-03-15T00:33:53.905Z,13.23
2023-03-15T00:36:25.375Z,16.65
2023-03-15T00:38:56.457Z,11.38
2023-03-15T00:41:23.975Z,15.07
2023-03-15T00:43:51.740Z,14.55
2023-03-15T00:46:19.933Z,12.70
2023-03-15T00:48:51.279Z,15.40
2023-03-15T00:51:21.485Z,14.02
2023-03-15T00:53:49.836Z,12.27
2023-03-15T00:56:30.186Z,12.88
2023-03-15T00:58:58.362Z,15.18
2023-03-15T01:01:28.443Z,13.15
2023-03-15T01:03:56.162Z,13.35
2023-03-15T01:06:25.584Z,13.00
2023-03-15T01:08:54.453Z,14.02
2023-03-15T01:11:24.792Z,14.02
2023-03-15T01:13:54.252Z,14.98
2023-03-15T01:16:21.907Z,16.33
2023-03-15T01:18:48.848Z,14.68
2023-03-15T01:21:16.332Z,17.48
2023-03-15T01:23:43.187Z,17.55
2023-03-15T01:26:13.082Z,19.60
2023-03-15T01:28:40.149Z,22.30
2023-03-15T01:31:07.349Z,20.95
2023-03-15T01:33:34.422Z,21.75
2023-03-15T01:36:04.115Z,21.45
2023-03-15T01:38:31.533Z,24.27
2023-03-15T01:40:58.748Z,24.00
2023-03-15T01:43:28.405Z,27.05
2023-03-15T01:46:19.856Z,29.23
2023-03-15T01:49:02.521Z,28.95
2023-03-15T01:51:33.030Z,28.80
2023-03-15T01:54:09.238Z,27.42
2023-03-15T01:56:39.223Z,29.65
2023-03-15T01:59:11.908Z,30.13
2023-03-15T02:01:45.642Z,32.20
2023-03-15T02:04:18.630Z,28.25
2023-03-15T02:06:47.766Z,30.63
2023-03-15T02:09:17.418Z,27.65
2023-03-15T02:11:44.324Z,28.65
2023-03-15T02:14:13.657Z,31.88
2023-03-15T02:16:40.750Z,32.15
2023-03-15T02:19:18.441Z,30.38
2023-03-15T02:22:13.342Z,31.23
2023-03-15T02:24:58.967Z,34.00
2023-03-15T02:27:31.790Z,35.08
2023-03-15T02:29:59.030Z,32.83
2023-03-15T02:32:26.184Z,39.85
2023-03-15T02:34:53.004Z,39.80
2023-03-15T02:37:19.887Z,31.63
2023-03-15T02:39:46.851Z,31.88
2023-03-15T02:42:14.624Z,33.85
2023-03-15T02:44:44.770Z,31.15
2023-03-15T02:47:16.707Z,35.00
2023-03-15T02:49:46.545Z,34.63
2023-03-15T02:52:14.066Z,33.40
2023-03-15T02:54:43.706Z,35.03
2023-03-15T02:57:12.387Z,39.60
2023-03-15T02:59:39.851Z,39.50
2023-03-15T03:02:06.833Z,32.35
2023-03-15T03:04:33.719Z,30.17
2023-03-15T03:07:00.571Z,33.08
2023-03-15T03:09:27.914Z,35.63
2023-03-15T03:11:54.747Z,32.40
2023-03-15T03:14:23.883Z,32.00
2023-03-15T03:16:51.501Z,30.55
2023-03-15T03:19:18.705Z,32.33
2023-03-15T03:21:45.498Z,37.28
2023-03-15T03:24:16.127Z,26.80
2023-03-15T03:26:46.218Z,31.35
2023-03-15T03:29:16.556Z,30.27
2023-03-15T03:31:44.992Z,30.20
2023-03-15T03:34:15.457Z,30.77
2023-03-15T03:36:43.287Z,33.13
2023-03-15T03:39:11.003Z,27.48
2023-03-15T03:41:37.898Z,27.45
2023-03-15T03:44:04.949Z,30.85
2023-03-15T03:46:32.324Z,28.52
2023-03-15T03:48:59.234Z,32.63
2023-03-15T03:51:26.121Z,29.20
2023-03-15T03:53:52.915Z,30.35
2023-03-15T03:56:19.763Z,28.45
2023-03-15T03:58:46.569Z,26.33
2023-03-15T04:01:13.380Z,30.50
2023-03-15T04:03:40.182Z,30.15
2023-03-15T04:06:07.105Z,25.63
2023-03-15T04:08:34.136Z,26.08
2023-03-15T04:11:04.098Z,27.77
2023-03-15T04:13:31.356Z,28.50
2023-03-15T04:15:58.766Z,22.55
2023-03-15T04:18:25.747Z,24.00
2023-03-15T04:20:54.717Z,24.08
2023-03-15T04:23:23.753Z,22.38
2023-03-15T04:25:58.143Z,23.90
2023-03-15T04:28:25.072Z,23.05
2023-03-15T04:30:52.141Z,23.10
2023-03-15T04:33:18.932Z,22.45
2023-03-15T04:35:45.848Z,22.60
2023-03-15T04:38:12.655Z,25.77
2023-03-15T04:40:39.517Z,26.88
2023-03-15T04:43:06.529Z,28.73
2023-03-15T04:45:33.599Z,29.65
2023-03-15T04:48:01.615Z,31.77
2023-03-15T04:50:30.028Z,28.80
2023-03-15T04:52:59.626Z,29.27
2023-03-15T04:55:26.676Z,32.00
2023-03-15T04:57:53.920Z,33.05
2023-03-15T05:00:21.754Z,28.00
2023-03-15T05:02:54.824Z,26.50
2023-03-15T05:05:24.016Z,34.08
2023-03-15T05:07:51.126Z,34.70
2023-03-15T05:10:18.919Z,32.42
2023-03-15T05:12:45.990Z,33.30
2023-03-15T05:15:12.850Z,34.72
2023-03-15T05:17:39.805Z,34.05
2023-03-15T05:20:11.862Z,38.30
2023-03-15T05:22:39.533Z,37.35
2023-03-15T05:25:07.084Z,39.08
2023-03-15T05:27:34.534Z,40.58
2023-03-15T05:30:05.219Z,37.20
2023-03-15T05:32:34.394Z,38.03
2023-03-15T05:35:01.928Z,35.20
2023-03-15T05:37:29.550Z,40.17
2023-03-15T05:39:56.636Z,40.88
2023-03-15T05:42:26.287Z,46.65
2023-03-15T05:44:53.893Z,45.33
2023-03-15T05:47:21.262Z,46.50
2023-03-15T05:49:48.648Z,41.95
2023-03-15T05:52:16.466Z,44.83
2023-03-15T05:54:43.399Z,41.20
2023-03-15T05:57:10.808Z,43.75
2023-03-15T05:59:37.603Z,49.63
2023-03-15T06:02:04.678Z,47.33
2023-03-15T06:04:31.735Z,43.10
2023-03-15T06:06:58.577Z,41.20
2023-03-15T06:09:25.562Z,45.25
2023-03-15T06:11:53.639Z,38.22
2023-03-15T06:14:20.508Z,41.45
2023-03-15T06:16:47.395Z,41.25
2023-03-15T06:19:14.262Z,45.42
2023-03-15T06:21:41.057Z,44.53
2023-03-15T06:24:08.136Z,37.72
2023-03-15T06:26:34.962Z,38.80
2023-03-15T06:29:01.742Z,41.45
2023-03-15T06:31:28.728Z,35.00
2023-03-15T06:33:55.674Z,34.83
2023-03-15T06:36:24.481Z,36.38
2023-03-15T06:38:54.531Z,40.08
2023-03-15T06:41:21.853Z,32.10
2023-03-15T06:43:48.662Z,36.05
2023-03-15T06:46:15.584Z,48.25
2023-03-15T06:48:42.655Z,39.20
2023-03-15T06:51:09.787Z,33.13
2023-03-15T06:53:41.413Z,33.63
2023-03-15T06:56:08.277Z,36.33
2023-03-15T06:58:35.079Z,36.17
2023-03-15T07:01:01.899Z,33.95
2023-03-15T07:03:28.762Z,27.45
2023-03-15T07:05:55.753Z,24.27
2023-03-15T07:08:24.424Z,31.60
2023-03-15T07:10:52.170Z,28.33
2023-03-15T07:13:19.650Z,23.70
2023-03-15T07:15:47.857Z,25.58
2023-03-15T07:18:14.771Z,23.20
2023-03-15T07:20:41.937Z,25.58
2023-03-15T07:23:08.733Z,18.60
2023-03-15T07:25:48.242Z,15.60
2023-03-15T07:28:21.623Z,22.00
2023-03-15T07:30:58.314Z,14.48
2023-03-15T07:33:26.789Z,13.85
2023-03-15T07:35:54.208Z,16.77
2023-03-15T07:38:22.686Z,12.85
2023-03-15T07:40:49.790Z,14.77
2023-03-15T07:43:17.163Z,17.90
2023-03-15T07:45:44.244Z,11.90
2023-03-15T07:48:11.292Z,19.33
2023-03-15T07:50:38.291Z,18.13
2023-03-15T07:53:06.143Z,15.82
2023-03-15T07:55:34.097Z,14.90
2023-03-15T07:58:01.611Z,8.63
2023-03-15T08:00:29.763Z,10.70
2023-03-15T08:02:56.654Z,11.43
2023-03-15T08:05:24.354Z,10.13
2023-03-15T08:07:51.655Z,9.45
2023-03-15T08:10:18.702Z,8.95
2023-03-15T08:12:45.706Z,7.28
2023-03-15T08:15:14.466Z,10.25
2023-03-15T08:17:42.438Z,11.93
2023-03-15T08:20:11.743Z,9.00
2023-03-15T08:22:39.335Z,8.50
2023-03-15T08:25:06.588Z,10.85
2023-03-15T08:27:33.354Z,12.80
2023-03-15T08:30:00.458Z,12.73
2023-03-15T08:32:27.340Z,12.48
2023-03-15T08:34:54.297Z,14.82
2023-03-15T08:37:21.256Z,14.70
2023-03-15T08:39:48.180Z,14.55
2023-03-15T08:42:14.954Z,13.23
2023-03-15T08:44:41.911Z,13.63
2023-03-15T08:47:08.922Z,14.77
2023-03-15T08:49:35.929Z,8.45
2023-03-15T08:52:02.991Z,13.43
2023-03-15T08:54:29.820Z,15.10
2023-03-15T08:56:56.794Z,15.77
2023-03-15T08:59:31.712Z,11.45
2023-03-15T09:02:01.052Z,12.10
2023-03-15T09:04:28.077Z,18.13
2023-03-15T09:06:55.065Z,11.13
2023-03-15T09:09:22.269Z,14.00
2023-03-15T09:11:49.412Z,12.10
2023-03-15T09:14:16.371Z,7.70
2023-03-15T09:16:43.244Z,13.23
2023-03-15T09:19:10.135Z,9.80
2023-03-15T09:21:36.988Z,13.32
2023-03-15T09:24:04.034Z,10.43
2023-03-15T09:26:30.894Z,12.25
2023-03-15T09:28:57.677Z,11.52
2023-03-15T09:31:24.955Z,10.50
2023-03-15T09:33:51.926Z,15.77
2023-03-15T09:36:18.733Z,10.50
2023-03-15T09:38:47.924Z,10.30
2023-03-15T09:41:34.831Z,15.15
2023-03-15T09:44:09.680Z,9.40
2023-03-15T09:46:46.051Z,12.18
2023-03-15T09:49:31.885Z,8.52
2023-03-15T09:54:38.774Z,11.48
2023-03-15T09:57:16.840Z,14.32
2023-03-15T09:59:47.222Z,7.00
2023-03-15T10:02:25.396Z,7.88
2023-03-15T10:04:59.876Z,6.05
2023-03-15T10:07:26.784Z,8.70
2023-03-15T10:09:53.688Z,8.32
2023-03-15T10:12:29.682Z,5.45
2023-03-15T10:15:15.297Z,6.25
2023-03-15T10:18:18.107Z,4.00
2023-03-15T10:20:56.122Z,8.15
2023-03-15T10:23:33.562Z,5.28
2023-03-15T10:26:01.182Z,4.75
2023-03-15T10:28:34.851Z,7.00
2023-03-15T10:31:29.434Z,4.97
2023-03-15T10:33:59.632Z,5.70
2023-03-15T10:36:26.946Z,2.00
2023-03-15T10:38:53.733Z,2.53
2023-03-15T10:41:41.335Z,7.13
2023-03-15T10:44:26.869Z,5.90
2023-03-15T10:47:21.431Z,4.85
2023-03-15T10:49:50.378Z,6.07
2023-03-15T10:52:31.911Z,4.07
2023-03-15T10:55:12.746Z,7.03
2023-03-15T10:57:50.810Z,8.75
2023-03-15T11:00:29.509Z,7.68
2023-03-15T11:03:25.127Z,5.20
2023-03-15T11:08:22.441Z,6.10
2023-03-15T11:10:59.950Z,7.22
2023-03-15T11:13:32.099Z,4.47
2023-03-15T11:15:59.033Z,6.57
2023-03-15T11:18:33.113Z,7.57
2023-03-15T11:21:03.075Z,4.80
2023-03-15T11:23:34.764Z,4.70
2023-03-15T11:26:02.131Z,9.98
2023-03-15T11:28:31.884Z,6.57
2023-03-15T11:31:01.011Z,6.70
2023-03-15T11:33:40.046Z,9.05
2023-03-15T11:36:13.538Z,5.60
2023-03-15T11:38:44.116Z,4.15
2023-03-15T11:41:35.363Z,5.78
2023-03-15T11:44:37.539Z,6.28
2023-03-15T11:47:27.979Z,5.47
2023-03-15T11:49:56.573Z,4.53
2023-03-15T11:52:26.681Z,6.38
2023-03-15T11:54:57.886Z,5.82
2023-03-15T11:57:44.011Z,8.52
2023-03-15T12:00:35.866Z,6.40
2023-03-15T12:03:34.393Z,9.43
2023-03-15T12:06:07.319Z,5.72
2023-03-15T12:08:53.762Z,7.72
2023-03-15T12:11:20.679Z,7.25
2023-03-15T12:13:59.585Z,5.32
2023-03-15T12:16:29.458Z,4.20
2023-03-15T12:19:02.936Z,2.95
2023-03-15T12:21:41.546Z,6.72
2023-03-15T12:24:27.200Z,6.90
2023-03-15T12:27:07.562Z,4.18
2023-03-15T12:29:36.219Z,4.20
2023-03-15T12:32:03.025Z,4.45
2023-03-15T12:34:49.965Z,3.45
2023-03-15T12:37:39.580Z,3.97
2023-03-15T12:40:15.846Z,3.38
2023-03-15T12:42:42.579Z,5.78
2023-03-15T12:45:18.286Z,4.05
2023-03-15T12:48:12.890Z,5.35
2023-03-15T12:50:45.959Z,3.97
2023-03-15T12:53:38.427Z,3.38
2023-03-15T12:56:38.972Z,5.68
2023-03-15T12:59:23.392Z,4.22
2023-03-15T13:01:52.041Z,4.28
2023-03-15T13:04:19.000Z,4.35
2023-03-15T13:06:48.756Z,2.83
2023-03-15T13:09:27.552Z,5.75
2023-03-15T13:11:59.590Z,5.85
2023-03-15T13:15:06.724Z,4.38
2023-03-15T13:17:43.680Z,3.70
2023-03-15T13:20:29.749Z,4.90
2023-03-15T13:23:20.166Z,5.20
2023-03-15T13:26:02.774Z,3.42
2023-03-15T13:28:40.099Z,7.45
2023-03-15T13:31:20.476Z,4.00
2023-03-15T13:33:49.371Z,4.25
2023-03-15T13:36:20.470Z,6.85
2023-03-15T13:38:50.695Z,5.22
2023-03-15T13:41:29.243Z,3.50
2023-03-15T13:44:02.104Z,4.68
2023-03-15T13:46:31.165Z,3.58
2023-03-15T13:49:00.542Z,3.35
2023-03-15T13:51:28.641Z,2.65
2023-03-15T13:54:07.636Z,4.40
2023-03-15T13:56:48.873Z,6.00
2023-03-15T13:59:17.421Z,5.25
2023-03-15T14:01:44.422Z,5.43
2023-03-15T14:04:17.592Z,4.07
2023-03-15T14:06:49.996Z,4.80
2023-03-15T14:09:22.893Z,7.85
2023-03-15T14:12:23.165Z,4.10
2023-03-15T14:14:51.896Z,3.50
2023-03-15T14:17:27.089Z,6.75
2023-03-15T14:20:14.861Z,5.33
2023-03-15T14:22:42.549Z,4.82
2023-03-15T14:25:22.519Z,3.83
2023-03-15T14:27:49.788Z,7.55
2023-03-15T14:30:25.519Z,3.60
2023-03-15T14:32:58.896Z,4.50
2023-03-15T14:35:40.133Z,5.70
2023-03-15T14:38:16.144Z,4.80
2023-03-15T14:40:43.035Z,5.47
2023-03-15T14:43:10.379Z,6.60
2023-03-15T14:45:39.777Z,7.68
2023-03-15T14:48:17.434Z,4.93
2023-03-15T14:50:45.967Z,4.68
2023-03-15T14:53:19.882Z,6.45
2023-03-15T14:55:47.286Z,5.07
2023-03-15T14:58:15.354Z,2.67
2023-03-15T15:00:44.431Z,4.68
2023-03-15T15:03:38.203Z,3.53
2023-03-15T15:06:08.404Z,3.42
2023-03-15T15:08:39.920Z,4.28
2023-03-15T15:11:10.589Z,4.97
2023-03-15T15:13:38.986Z,3.03
2023-03-15T15:16:07.170Z,2.28
2023-03-15T15:18:36.546Z,3.45
2023-03-15T15:21:16.375Z,3.22
2023-03-15T15:23:57.468Z,3.42
2023-03-15T15:26:27.305Z,2.60
2023-03-15T15:28:55.151Z,4.40
2023-03-15T15:31:24.337Z,3.58
2023-03-15T15:33:54.995Z,2.58
2023-03-15T15:36:31.094Z,3.90
2023-03-15T15:39:05.751Z,4.22
2023-03-15T15:41:33.554Z,2.38
2023-03-15T15:44:01.177Z,2.83
2023-03-15T15:46:28.210Z,3.35
2023-03-15T15:48:55.360Z,3.53
2023-03-15T15:51:28.763Z,5.60
2023-03-15T15:53:57.968Z,3.33
2023-03-15T15:56:37.010Z,2.45
2023-03-15T15:59:04.979Z,3.95
2023-03-15T16:01:32.780Z,4.80
2023-03-15T16:04:01.875Z,2.05
2023-03-15T16:06:28.848Z,2.45
2023-03-15T16:08:56.036Z,3.58
2023-03-15T16:11:23.219Z,2.67
2023-03-15T16:13:53.940Z,2.85
2023-03-15T16:16:21.778Z,3.80
2023-03-15T16:18:48.687Z,2.80
2023-03-15T16:21:33.682Z,1.98
2023-03-15T16:24:18.633Z,4.32
2023-03-15T16:26:46.687Z,3.83
2023-03-15T16:29:24.608Z,2.17
2023-03-15T16:31:51.513Z,4.38
2023-03-15T16:34:20.023Z,3.97
2023-03-15T16:36:49.742Z,8.02
2023-03-15T16:39:17.343Z,4.53
2023-03-15T16:41:44.309Z,5.18
2023-03-15T16:44:17.354Z,5.45
2023-03-15T16:46:44.742Z,3.22
2023-03-15T16:49:12.688Z,3.20
2023-03-15T16:51:45.250Z,5.78
2023-03-15T16:54:24.308Z,5.85
2023-03-15T16:56:58.132Z,4.70
2023-03-15T16:59:24.945Z,6.70
2023-03-15T17:01:52.050Z,6.57
2023-03-15T17:04:19.551Z,4.60
2023-03-15T17:06:46.834Z,3.30
2023-03-15T17:09:23.328Z,5.13
2023-03-15T17:11:56.094Z,6.25
2023-03-15T17:14:29.900Z,4.40
2023-03-15T17:16:56.892Z,4.43
2023-03-15T17:19:24.282Z,6.32
2023-03-15T17:21:52.372Z,7.45
2023-03-15T17:24:34.100Z,5.45
2023-03-15T17:27:02.007Z,2.72
2023-03-15T17:29:29.044Z,8.43
2023-03-15T17:31:55.929Z,4.05
2023-03-15T17:34:23.244Z,4.20
2023-03-15T17:36:50.422Z,5.30
2023-03-15T17:39:18.614Z,6.13
2023-03-15T17:41:49.059Z,3.20
2023-03-15T17:44:16.174Z,4.22
2023-03-15T17:46:43.521Z,4.50
2023-03-15T17:49:13.603Z,4.82
2023-03-15T17:51:41.054Z,5.70
2023-03-15T17:54:14.034Z,4.55
2023-03-15T17:56:41.382Z,6.53
2023-03-15T17:59:11.747Z,7.40
2023-03-15T18:01:46.429Z,6.85
2023-03-15T18:04:13.927Z,3.85
2023-03-15T18:06:42.072Z,4.95
2023-03-15T18:09:13.228Z,6.00
2023-03-15T18:11:42.743Z,3.85
2023-03-15T18:14:16.740Z,4.00
2023-03-15T18:16:45.436Z,5.68
2023-03-15T18:19:12.708Z,3.33
2023-03-15T18:21:40.337Z,3.47
2023-03-15T18:24:07.609Z,4.95
2023-03-15T18:26:34.938Z,5.45
2023-03-15T18:29:01.887Z,5.57
2023-03-15T18:31:28.992Z,4.80
2023-03-15T18:33:56.386Z,8.80
2023-03-15T18:36:23.410Z,5.57
2023-03-15T18:38:50.388Z,7.25
2023-03-15T18:41:20.664Z,6.18
2023-03-15T18:43:51.750Z,8.65
2023-03-15T18:46:20.850Z,12.65
2023-03-15T18:48:49.818Z,8.40
2023-03-15T18:51:21.622Z,6.93
2023-03-15T18:53:49.503Z,11.20
2023-03-15T18:56:24.785Z,9.20
2023-03-15T18:58:53.423Z,6.88
2023-03-15T19:01:25.109Z,6.15
2023-03-15T19:03:53.535Z,7.85
2023-03-15T19:06:21.774Z,9.18
2023-03-15T19:08:53.224Z,6.90
2023-03-15T19:11:21.350Z,7.75
2023-03-15T19:13:51.492Z,6.53
2023-03-15T19:16:22.783Z,8.82
2023-03-15T19:18:51.668Z,9.35
2023-03-15T19:21:21.893Z,8.43
2023-03-15T19:23:48.892Z,8.80
2023-03-15T19:26:15.982Z,8.30
2023-03-15T19:28:43.083Z,9.40
2023-03-15T19:31:10.026Z,8.32
2023-03-15T19:33:37.432Z,7.65
2023-03-15T19:36:05.020Z,8.40
2023-03-15T19:38:32.933Z,8.63
2023-03-15T19:41:07.683Z,6.35
2023-03-15T19:43:35.505Z,7.88
2023-03-15T19:46:04.631Z,8.85
2023-03-15T19:48:31.451Z,8.38
2023-03-15T19:50:58.304Z,6.90
2023-03-15T19:53:25.656Z,7.85
2023-03-15T19:55:52.650Z,6.60
2023-03-15T19:58:19.595Z,10.77
2023-03-15T20:00:46.488Z,9.18
2023-03-15T20:03:13.458Z,7.00
2023-03-15T20:05:40.835Z,10.73
2023-03-15T20:08:08.573Z,10.70
2023-03-15T20:10:35.674Z,9.77
2023-03-15T20:13:03.537Z,11.65
2023-03-15T20:15:30.710Z,9.32
2023-03-15T20:17:57.603Z,10.35
2023-03-15T20:20:24.615Z,6.88
2023-03-15T20:22:51.520Z,9.10
2023-03-15T20:25:20.172Z,10.40
2023-03-15T20:27:47.844Z,12.30
2023-03-15T20:30:16.762Z,13.23
2023-03-15T20:32:43.980Z,8.35
2023-03-15T20:35:12.130Z,8.32
2023-03-15T20:37:40.705Z,17.02
2023-03-15T20:40:11.253Z,15.43
2023-03-15T20:42:38.432Z,10.73
2023-03-15T20:45:07.246Z,14.98
2023-03-15T20:47:34.533Z,9.77
2023-03-15T20:50:01.852Z,11.95
2023-03-15T20:52:28.855Z,9.82
2023-03-15T20:54:55.955Z,10.07
2023-03-15T20:57:23.307Z,11.50
2023-03-15T20:59:51.529Z,11.60
2023-03-15T21:02:18.844Z,9.65
2023-03-15T21:04:46.498Z,8.48
2023-03-15T21:07:13.813Z,11.15
2023-03-15T21:09:41.430Z,14.13
2023-03-15T21:12:09.478Z,10.05
2023-03-15T21:14:36.857Z,9.18
2023-03-15T21:17:04.200Z,9.98
2023-03-15T21:19:35.167Z,9.27
2023-03-15T21:22:02.484Z,13.50
2023-03-15T21:24:31.387Z,11.50
2023-03-15T21:26:58.847Z,13.88
2023-03-15T21:29:26.074Z,9.65
2023-03-15T21:31:53.413Z,10.48
2023-03-15T21:34:20.967Z,10.50
2023-03-15T21:36:48.183Z,9.40
2023-03-15T21:39:15.473Z,14.98
2023-03-15T21:41:45.110Z,11.52
2023-03-15T21:44:12.555Z,9.25
2023-03-15T21:46:39.848Z,11.10
2023-03-15T21:49:07.090Z,9.60
2023-03-15T21:51:34.194Z,13.95
2023-03-15T21:54:01.367Z,11.85
2023-03-15T21:56:28.610Z,10.75
2023-03-15T21:58:55.887Z,11.75
2023-03-15T22:01:22.874Z,15.43
2023-03-15T22:03:53.299Z,13.48
2023-03-15T22:06:21.807Z,15.02
2023-03-15T22:08:49.540Z,13.20
2023-03-15T22:11:16.879Z,12.30
2023-03-15T22:13:43.995Z,10.20
2023-03-15T22:16:12.229Z,13.60
2023-03-15T22:18:39.357Z,11.23
2023-03-15T22:21:07.056Z,13.93
2023-03-15T22:23:33.877Z,11.90
2023-03-15T22:26:00.900Z,10.65
2023-03-15T22:28:27.776Z,11.45
2023-03-15T22:30:54.695Z,12.07
2023-03-15T22:33:22.874Z,14.65
2023-03-15T22:35:58.072Z,17.15
2023-03-15T22:38:26.229Z,15.70
2023-03-15T22:41:03.895Z,10.60
2023-03-15T22:43:30.794Z,12.02
2023-03-15T22:45:57.793Z,12.75
2023-03-15T22:48:24.856Z,12.43
2023-03-15T22:51:06.385Z,11.68
2023-03-15T22:53:34.234Z,11.65
2023-03-15T22:56:01.266Z,11.75
2023-03-15T22:58:28.161Z,13.80
2023-03-15T23:00:55.256Z,12.32
2023-03-15T23:03:22.275Z,11.25
2023-03-15T23:05:49.321Z,11.23
2023-03-15T23:08:16.149Z,12.35
2023-03-15T23:10:42.997Z,13.48
2023-03-15T23:13:09.982Z,10.43
2023-03-15T23:15:36.914Z,11.27
2023-03-15T23:18:05.435Z,9.98
2023-03-15T23:20:32.840Z,11.77
2023-03-15T23:22:59.730Z,15.30
2023-03-15T23:25:29.757Z,13.20
2023-03-15T23:27:57.049Z,10.60
2023-03-15T23:30:24.081Z,10.27
2023-03-15T23:32:57.555Z,13.55
2023-03-15T23:35:24.929Z,15.90
2023-03-15T23:37:56.211Z,14.75
2023-03-15T23:40:23.344Z,10.40
2023-03-15T23:42:58.793Z,13.10
2023-03-15T23:45:28.018Z,11.80
2023-03-15T23:47:54.998Z,12.25
2023-03-15T23:50:25.716Z,14.68
2023-03-15T23:52:54.618Z,12.07
2023-03-15T23:55:22.257Z,11.07
2023-03-15T23:57:49.389Z,13.02
